createdAt,value
2023-03-10T00:01:05.997Z,46
2023-03-10T00:16:05.332Z,33
2023-03-10T00:31:05.599Z,23
2023-03-10T00:46:05.544Z,23
2023-03-10T01:01:05.550Z,11
2023-03-10T01:16:06.313Z,11
2023-03-10T01:31:05.250Z,10
2023-03-10T01:46:05.316Z,11
2023-03-10T02:01:05.910Z,8
2023-03-10T02:16:05.352Z,9
2023-03-10T02:31:05.590Z,8
2023-03-10T02:46:06.061Z,7
2023-03-10T03:01:05.761Z,7
2023-03-10T03:16:06.239Z,21
2023-03-10T03:31:05.644Z,8
2023-03-10T03:46:06.239Z,9
2023-03-10T04:01:05.727Z,8
2023-03-10T04:16:06.013Z,13
2023-03-10T04:31:06.265Z,18
2023-03-10T04:46:05.673Z,26
2023-03-10T05:01:06.183Z,15
2023-03-10T05:16:05.560Z,11
2023-03-10T05:31:05.758Z,11
2023-03-10T05:46:05.263Z,12
2023-03-10T06:01:05.680Z,12
2023-03-10T06:16:06.249Z,12
2023-03-10T06:31:06.753Z,11
2023-03-10T06:46:05.492Z,12
2023-03-10T07:01:06.190Z,14
2023-03-10T07:16:05.559Z,15
2023-03-10T07:31:05.881Z,9
2023-03-10T07:46:05.565Z,8
2023-03-10T08:01:05.260Z,12
2023-03-10T08:16:05.991Z,9
2023-03-10T08:31:05.927Z,5
2023-03-10T08:46:09.064Z,10
2023-03-10T09:01:06.049Z,6
2023-03-10T09:16:05.120Z,9
2023-03-10T09:31:05.795Z,10
2023-03-10T09:46:06.197Z,10
2023-03-10T10:01:05.506Z,8
2023-03-10T10:16:33.755Z,8
2023-03-10T10:31:05.565Z,12
2023-03-10T10:46:05.445Z,16
2023-03-10T11:01:05.649Z,14
2023-03-10T11:16:05.616Z,13
2023-03-10T11:31:05.289Z,12
2023-03-10T11:46:05.838Z,15
2023-03-10T12:01:05.201Z,10
2023-03-10T12:16:06.121Z,8
2023-03-10T12:31:05.635Z,10
2023-03-10T12:46:05.450Z,10
2023-03-10T13:01:05.349Z,9
2023-03-10T13:16:06.123Z,10
2023-03-10T13:31:05.437Z,14
2023-03-10T13:46:06.062Z,11
2023-03-10T14:01:05.635Z,17
2023-03-10T14:16:05.319Z,15
2023-03-10T14:31:05.930Z,8
2023-03-10T14:46:06.112Z,13
2023-03-10T15:01:05.227Z,13
2023-03-10T15:16:05.132Z,22
2023-03-10T15:31:05.594Z,18
2023-03-10T15:46:04.931Z,10
2023-03-10T16:01:05.520Z,11
2023-03-10T16:16:05.754Z,26
2023-03-10T16:31:04.844Z,11
2023-03-10T16:46:05.775Z,12
2023-03-10T17:01:05.457Z,12
2023-03-10T17:16:05.272Z,14
2023-03-10T17:31:04.935Z,14
2023-03-10T17:46:05.800Z,13
2023-03-10T18:01:05.523Z,11
2023-03-10T18:16:05.513Z,9
2023-03-10T18:31:05.813Z,11
2023-03-10T18:46:05.329Z,15
2023-03-10T19:01:05.532Z,12
2023-03-10T19:16:04.957Z,14
2023-03-10T19:31:05.815Z,16
2023-03-10T19:46:05.362Z,17
2023-03-10T20:01:05.854Z,18
2023-03-10T20:16:05.359Z,16
2023-03-10T20:31:05.354Z,18
2023-03-10T20:46:05.704Z,18
2023-03-10T21:01:04.997Z,22
2023-03-10T21:16:05.278Z,27
2023-03-10T21:31:05.680Z,22
2023-03-10T21:46:05.483Z,28
2023-03-10T22:01:05.511Z,21
2023-03-10T22:16:05.672Z,25
2023-03-10T22:31:05.105Z,24
2023-03-10T22:46:05.595Z,20
2023-03-10T23:01:04.960Z,25
2023-03-10T23:16:05.762Z,34
2023-03-10T23:31:05.122Z,31
2023-03-10T23:46:05.665Z,21
